LFMD/CEQ METAR and TAF weather

Enter ICAO airport designator
Station Type Date Time Source
LFMD METAR 2022/01/23 12:30 UTC NOAA

LFMD 231230Z AUTO 18005KT CAVOK 13/07 Q1029 NOSIG


Station Type Date Time Source
LFMD Decoded METAR 2022/01/23 12:30 UTC NOAA

Cannes, France (LFMD) 43-33N 006-57E 9M
Jan 23, 2022 - 07:30 AM EST / 2022.01.23 1230 UTC
Wind: from the S (180 degrees) at 6 MPH (5 KT):0
Visibility: greater than 7 mile(s):0
Temperature: 55 F (13 C)
Dew Point: 44 F (7 C)
Relative Humidity: 66%
Pressure (altimeter): 30.39 in. Hg (1029 hPa)
ob: LFMD 231230Z AUTO 18005KT CAVOK 13/07 Q1029 NOSIG
cycle: 12

Station Type Date Time Source
LFMD TAF 2022/01/23 09:21 UTC NOAA

TAF LFMD 230800Z 2309/2409 VRB03KT CAVOK

Example: see airport list